Time;durP1;ratioP1;P1;durP2;ratioP2;P2;SDS_P1;SDS_P2;PMS_P1;PMS_P2;Temp;Humidity;BMP_temperature;BMP_pressure;BME280_temperature;BME280_humidity;BME280_pressure;Samples;Min_cycle;Max_cycle;Signal;HPM_P1;HPM_P2
2021/07/04 00:00:37;;;;;;;3.22;1.33;;;21.60;87.10;;;;;;5050744;28;20076;-77
2021/07/04 00:03:05;;;;;;;0.90;0.90;;;21.70;87.20;;;;;;5049519;28;20040;-81
2021/07/04 00:05:45;;;;;;;1.42;1.33;;;21.50;87.60;;;;;;5050565;28;20032;-81
2021/07/04 00:08:14;;;;;;;1.95;1.55;;;21.50;87.80;;;;;;5047653;28;20029;-81
2021/07/04 00:10:44;;;;;;;1.20;1.10;;;21.50;87.60;;;;;;5050590;28;20125;-86
2021/07/04 00:13:10;;;;;;;1.55;1.45;;;21.50;87.70;;;;;;5049819;28;20056;-82
2021/07/04 00:15:40;;;;;;;2.53;1.70;;;21.50;87.70;;;;;;5051103;28;20037;-86
2021/07/04 00:18:08;;;;;;;1.08;1.02;;;21.50;88.50;;;;;;5053205;28;20025;-85
2021/07/04 00:20:33;;;;;;;1.00;1.00;;;21.40;88.80;;;;;;5053161;28;20497;-89
2021/07/04 00:23:16;;;;;;;1.00;1.00;;;21.30;89.30;;;;;;5038617;28;20037;-90
2021/07/04 00:26:00;;;;;;;1.30;1.20;;;21.30;89.40;;;;;;5036210;28;20030;-91
2021/07/04 00:28:44;;;;;;;3.13;1.90;;;21.20;89.60;;;;;;5033848;28;20477;-85
2021/07/04 00:31:15;;;;;;;1.00;1.00;;;21.20;89.80;;;;;;5035350;28;20037;-85
2021/07/04 00:33:40;;;;;;;1.48;1.38;;;21.20;90.00;;;;;;5034375;28;20030;-84
2021/07/04 00:36:17;;;;;;;;;;;;;;;;;;;;;
2021/07/04 00:38:43;;;;;;;0.98;0.98;;;21.20;89.80;;;;;;5034503;28;20046;-88
2021/07/04 00:41:18;;;;;;;2.42;2.22;;;20.90;90.20;;;;;;5034888;28;20030;-87
2021/07/04 00:43:44;;;;;;;1.15;1.13;;;20.40;90.50;;;;;;5034479;28;20033;-86
2021/07/04 00:46:15;;;;;;;2.33;1.63;;;19.90;91.40;;;;;;5034257;28;20421;-82
2021/07/04 00:48:42;;;;;;;1.95;1.85;;;19.90;91.90;;;;;;5033330;28;20056;-85
2021/07/04 00:51:09;;;;;;;1.30;1.20;;;19.70;92.10;;;;;;5034263;28;20026;-85
2021/07/04 00:53:36;;;;;;;1.88;1.77;;;19.60;92.30;;;;;;5033208;28;20029;-86
2021/07/04 00:56:02;;;;;;;1.50;1.40;;;19.50;92.40;;;;;;5033927;28;20171;-89
2021/07/04 00:58:40;;;;;;;2.05;1.95;;;19.40;92.70;;;;;;5037443;28;20041;-82
2021/07/04 01:01:08;;;;;;;5.07;1.75;;;19.60;92.70;;;;;;5053351;28;20048;-82
2021/07/04 01:03:40;;;;;;;1.42;1.33;;;19.60;92.70;;;;;;5054222;28;20372;-84
2021/07/04 01:06:12;;;;;;;1.83;1.70;;;19.70;92.90;;;;;;5052836;28;20484;-81
2021/07/04 01:08:39;;;;;;;2.10;1.90;;;20.20;92.60;;;;;;5054176;28;20032;-83
2021/07/04 01:11:08;;;;;;;1.80;1.70;;;20.50;92.30;;;;;;5053842;28;20040;-81
2021/07/04 01:13:37;;;;;;;1.20;1.10;;;20.60;92.40;;;;;;5053970;28;20029;-82
2021/07/04 01:16:03;;;;;;;1.20;1.10;;;20.60;92.10;;;;;;5054315;28;20021;-80
2021/07/04 01:18:29;;;;;;;1.60;1.50;;;20.40;92.40;;;;;;5054064;28;20480;-85
2021/07/04 01:21:08;;;;;;;2.28;2.08;;;20.40;92.70;;;;;;5053778;28;20029;-82
2021/07/04 01:23:34;;;;;;;2.05;1.95;;;20.50;92.60;;;;;;5052242;28;20025;-84
2021/07/04 01:26:06;;;;;;;1.77;1.65;;;20.60;92.30;;;;;;5052460;28;20037;-86
2021/07/04 01:28:50;;;;;;;1.40;1.30;;;20.60;92.40;;;;;;5051376;28;20049;-84
2021/07/04 01:31:36;;;;;;;1.77;1.17;;;20.50;92.10;;;;;;5052471;28;20040;-85
2021/07/04 01:34:40;;;;;;;1.30;1.20;;;20.30;92.80;;;;;;5053407;28;20056;-83
2021/07/04 01:37:06;;;;;;;1.52;1.42;;;20.30;93.10;;;;;;5049046;28;20061;-87
2021/07/04 01:39:32;;;;;;;6.07;2.75;;;20.20;93.10;;;;;;5054376;28;20084;-88
2021/07/04 01:42:17;;;;;;;2.70;1.42;;;20.20;93.40;;;;;;5052087;28;20087;-87
2021/07/04 01:44:42;;;;;;;1.70;1.60;;;20.20;93.60;;;;;;5051962;28;20037;-88
2021/07/04 01:50:28;;;;;;;1.30;1.20;;;19.90;93.80;;;;;;4839102;26;20049;-89
2021/07/04 01:55:39;;;;;;;1.27;1.20;;;20.10;93.70;;;;;;5013690;28;20044;-85
2021/07/04 02:15:12;;;;;;;1.30;1.20;;;19.90;95.10;;;;;;4953046;29;20101;-86
2021/07/04 02:17:37;;;;;;;1.30;1.20;;;19.80;95.10;;;;;;4969816;28;20031;-84
2021/07/04 02:20:33;;;;;;;1.40;1.30;;;19.80;94.90;;;;;;4937435;29;20110;-87
2021/07/04 02:23:13;;;;;;;2.05;1.95;;;19.90;94.90;;;;;;4969165;28;20036;-85
2021/07/04 02:25:41;;;;;;;2.25;1.88;;;19.90;94.80;;;;;;4987954;28;20509;-84
2021/07/04 02:28:22;;;;;;;1.55;1.45;;;19.80;95.40;;;;;;5012347;28;20070;-84
2021/07/04 02:30:50;;;;;;;1.67;1.58;;;19.90;95.30;;;;;;5001272;28;20038;-84
2021/07/04 02:33:20;;;;;;;1.88;1.70;;;19.90;95.20;;;;;;5047573;28;20037;-84
2021/07/04 02:35:57;;;;;;;4.07;3.70;;;19.80;95.20;;;;;;5032209;28;20021;-87
2021/07/04 02:38:24;;;;;;;1.02;1.02;;;19.80;95.50;;;;;;5015592;28;20092;-90
2021/07/04 02:41:14;;;;;;;1.58;1.48;;;19.90;95.50;;;;;;5015522;28;20572;-89
2021/07/04 02:43:40;;;;;;;;;;;19.80;95.60;;;;;;5033492;28;20070;-87
2021/07/04 02:48:56;;;;;;;1.50;1.40;;;19.70;96.20;;;;;;5031921;28;20076;-91
2021/07/04 02:51:54;;;;;;;1.10;1.10;;;19.80;96.30;;;;;;5018085;28;20042;-95
2021/07/04 02:55:01;;;;;;;2.30;2.10;;;19.60;96.60;;;;;;5036226;28;20040;-90
2021/07/04 02:57:38;;;;;;;1.45;1.35;;;19.60;97.00;;;;;;5015470;28;20508;-86
2021/07/04 03:00:45;;;;;;;1.20;1.10;;;19.50;97.10;;;;;;5031548;28;20041;-88
2021/07/04 03:03:23;;;;;;;1.40;1.30;;;19.40;97.80;;;;;;5009594;28;20041;-86
2021/07/04 03:06:07;;;;;;;1.60;1.50;;;19.30;98.30;;;;;;5014700;28;20041;-89
2021/07/04 03:09:01;;;;;;;1.42;1.33;;;19.30;98.50;;;;;;5032009;28;20280;-90
2021/07/04 03:11:26;;;;;;;2.53;2.33;;;19.30;98.80;;;;;;5013869;28;20432;-86
2021/07/04 03:14:04;;;;;;;1.60;1.50;;;19.50;98.60;;;;;;5014030;28;20481;-85
2021/07/04 03:16:30;;;;;;;1.30;1.20;;;19.20;98.90;;;;;;5013667;28;20382;-84
2021/07/04 03:18:56;;;;;;;4.65;1.77;;;19.20;98.90;;;;;;5013317;28;20511;-84
2021/07/04 03:21:42;;;;;;;1.27;1.17;;;19.20;99.30;;;;;;5013631;28;20516;-84
2021/07/04 03:24:07;;;;;;;1.27;1.17;;;19.00;99.90;;;;;;5013658;28;20404;-82
2021/07/04 03:26:34;;;;;;;1.65;1.55;;;19.30;99.30;;;;;;5031441;28;20483;-86
2021/07/04 03:29:00;;;;;;;1.70;1.60;;;19.40;99.20;;;;;;5014001;28;20428;-85
2021/07/04 03:31:26;;;;;;;1.30;1.20;;;19.40;99.10;;;;;;5000761;28;20469;-86
2021/07/04 03:33:52;;;;;;;2.10;1.55;;;19.40;98.50;;;;;;5011638;28;20041;-85
2021/07/04 03:36:18;;;;;;;1.45;1.35;;;19.10;99.00;;;;;;5011792;28;20500;-84
2021/07/04 03:38:44;;;;;;;1.60;1.50;;;19.20;98.80;;;;;;5026845;28;20053;-84
2021/07/04 03:41:15;;;;;;;1.40;1.30;;;19.40;98.60;;;;;;4993321;28;20033;-85
2021/07/04 03:43:50;;;;;;;1.30;1.20;;;19.50;98.30;;;;;;5011897;28;20048;-87
2021/07/04 03:46:16;;;;;;;1.30;1.20;;;19.40;98.30;;;;;;4993672;28;20066;-84
2021/07/04 03:48:41;;;;;;;1.42;1.33;;;19.30;98.50;;;;;;5010060;28;20493;-83
2021/07/04 03:51:16;;;;;;;1.27;1.17;;;19.20;98.90;;;;;;5011451;28;20088;-83
2021/07/04 03:53:43;;;;;;;1.40;1.30;;;19.20;98.90;;;;;;5010559;28;20077;-85
2021/07/04 03:56:21;;;;;;;1.20;1.15;;;19.50;98.80;;;;;;5026477;28;20470;-82
2021/07/04 03:59:09;;;;;;;1.10;1.10;;;19.60;98.60;;;;;;5011289;28;20088;-86
2021/07/04 04:01:40;;;;;;;1.45;1.35;;;19.70;98.50;;;;;;5011298;28;20038;-87
2021/07/04 04:10:32;;;;;;;;;;;19.80;98.10;;;;;;5012734;28;20137;-93
2021/07/04 04:12:58;;;;;;;1.50;1.40;;;19.60;97.90;;;;;;5027516;28;19909;-87
2021/07/04 04:15:25;;;;;;;1.30;1.20;;;19.70;98.10;;;;;;5027958;28;20094;-87
2021/07/04 04:17:58;;;;;;;2.05;1.85;;;19.80;98.10;;;;;;5036213;22;20020;-85
2021/07/04 04:20:45;;;;;;;1.83;1.67;;;19.80;98.30;;;;;;5031018;28;20033;-85
2021/07/04 04:23:30;;;;;;;2.13;2.00;;;20.00;98.30;;;;;;5030898;28;20040;-84
2021/07/04 04:26:16;;;;;;;1.40;1.30;;;19.90;98.50;;;;;;5031196;28;20056;-82
2021/07/04 04:29:07;;;;;;;1.17;1.10;;;19.90;98.20;;;;;;5031237;28;20040;-83
2021/07/04 04:31:39;;;;;;;1.45;1.35;;;20.00;98.50;;;;;;5042827;28;20040;-84
2021/07/04 04:34:29;;;;;;;1.52;1.42;;;20.00;98.20;;;;;;5050469;28;20124;-82
2021/07/04 04:40:09;;;;;;;1.30;1.20;;;19.70;99.20;;;;;;5050563;28;20510;-83
2021/07/04 04:42:35;;;;;;;1.00;1.00;;;20.00;99.10;;;;;;5049355;28;20090;-81
2021/07/04 04:45:35;;;;;;;1.50;1.40;;;20.00;98.40;;;;;;5049651;28;20033;-82
2021/07/04 04:48:01;;;;;;;1.20;1.10;;;19.90;98.00;;;;;;5049298;28;20087;-82
2021/07/04 04:50:32;;;;;;;1.00;1.00;;;20.00;97.80;;;;;;5049043;28;20029;-82
2021/07/04 04:53:04;;;;;;;1.10;1.10;;;19.80;97.80;;;;;;5049757;28;20049;-82
2021/07/04 04:55:36;;;;;;;1.83;1.73;;;20.00;98.00;;;;;;5050724;28;20055;-80
2021/07/04 04:58:02;;;;;;;1.77;1.55;;;19.90;97.80;;;;;;5050168;28;20106;-81
2021/07/04 05:00:27;;;;;;;1.00;1.00;;;19.70;98.20;;;;;;5049397;28;20041;-80
2021/07/04 05:02:53;;;;;;;1.30;1.20;;;19.80;98.30;;;;;;5050708;28;20037;-84
2021/07/04 05:05:19;;;;;;;2.00;1.40;;;19.80;98.40;;;;;;5053213;28;20100;-83
2021/07/04 05:07:45;;;;;;;1.38;1.27;;;19.90;98.70;;;;;;5053635;28;20354;-85
2021/07/04 05:10:11;;;;;;;1.25;1.15;;;20.00;98.30;;;;;;5052590;28;20029;-85
2021/07/04 05:12:40;;;;;;;2.45;2.25;;;20.20;98.10;;;;;;5053621;28;20029;-85
2021/07/04 05:15:06;;;;;;;0.90;0.90;;;20.00;98.10;;;;;;5052057;28;20095;-85
2021/07/04 05:17:32;;;;;;;1.42;1.33;;;20.00;98.30;;;;;;5052587;28;20036;-84
2021/07/04 05:19:57;;;;;;;1.70;1.60;;;20.00;98.30;;;;;;5053363;28;20049;-87
2021/07/04 05:22:23;;;;;;;1.10;1.10;;;20.00;98.40;;;;;;5053518;28;20029;-86
2021/07/04 05:27:52;;;;;;;1.00;1.00;;;20.20;97.40;;;;;;5053752;28;20409;-85
2021/07/04 05:30:33;;;;;;;1.30;1.20;;;20.30;97.50;;;;;;5051231;28;20036;-84
2021/07/04 05:33:18;;;;;;;1.15;1.10;;;20.20;97.30;;;;;;5032166;28;20148;-86
2021/07/04 05:35:47;;;;;;;1.08;1.08;;;20.20;97.40;;;;;;5032218;28;20036;-86
2021/07/04 05:44:58;;;;;;;1.77;1.67;;;20.50;96.60;;;;;;5033042;28;20398;-85
2021/07/04 05:47:24;;;;;;;1.30;1.20;;;20.50;96.30;;;;;;5031882;28;20041;-85
2021/07/04 05:53:31;;;;;;;1.02;1.00;;;20.60;96.20;;;;;;5212788;22;20056;-85
2021/07/04 05:55:57;;;;;;;1.40;1.10;;;20.70;95.80;;;;;;5031601;28;20030;-83
2021/07/04 05:58:23;;;;;;;1.05;1.05;;;20.80;96.10;;;;;;5032802;28;20386;-84
2021/07/04 06:00:51;;;;;;;1.20;1.10;;;21.10;95.60;;;;;;5031567;28;20477;-83
2021/07/04 06:03:43;;;;;;;1.48;1.38;;;21.10;95.50;;;;;;5030921;28;20033;-86
2021/07/04 06:06:12;;;;;;;1.30;1.20;;;21.40;94.90;;;;;;5031296;28;20041;-83
2021/07/04 06:08:38;;;;;;;1.23;1.13;;;21.40;94.50;;;;;;5031003;28;20048;-81
2021/07/04 06:11:04;;;;;;;1.45;1.35;;;21.50;94.40;;;;;;5032923;28;20026;-81
2021/07/04 06:13:29;;;;;;;1.33;1.23;;;21.80;94.20;;;;;;5032381;28;20034;-81
2021/07/04 06:15:55;;;;;;;1.50;1.33;;;22.00;93.40;;;;;;5031174;28;20041;-83
2021/07/04 06:18:21;;;;;;;0.80;0.80;;;22.00;93.00;;;;;;5031192;28;20060;-82
2021/07/04 06:20:47;;;;;;;0.90;0.90;;;22.30;92.50;;;;;;5032376;28;20503;-82
2021/07/04 06:23:12;;;;;;;1.38;1.27;;;22.40;91.70;;;;;;5031055;28;20442;-81
2021/07/04 06:25:38;;;;;;;1.20;1.10;;;22.40;91.60;;;;;;5031014;28;20038;-81
2021/07/04 06:28:05;;;;;;;0.90;0.90;;;22.40;91.30;;;;;;5032823;28;20029;-82
2021/07/04 06:30:30;;;;;;;1.42;1.33;;;22.20;91.10;;;;;;5032909;28;20026;-84
2021/07/04 06:32:56;;;;;;;0.70;0.70;;;22.10;91.20;;;;;;5050722;28;20053;-83
2021/07/04 06:35:22;;;;;;;2.20;2.00;;;22.20;91.00;;;;;;5051895;28;20056;-82
2021/07/04 06:37:48;;;;;;;0.80;0.80;;;22.30;91.20;;;;;;5052151;28;20052;-82
2021/07/04 06:40:17;;;;;;;1.25;1.17;;;22.30;91.20;;;;;;5051693;28;20045;-82
2021/07/04 06:42:43;;;;;;;1.50;1.40;;;22.40;91.60;;;;;;5052193;28;20106;-87
2021/07/04 06:48:12;;;;;;;0.90;0.90;;;22.50;91.40;;;;;;5051476;28;20075;-85
2021/07/04 06:50:38;;;;;;;0.88;0.88;;;22.80;91.10;;;;;;5051404;28;20037;-85
2021/07/04 07:07:05;;;;;;;0.90;0.90;;;23.20;90.10;;;;;;5009671;28;20105;-87
2021/07/04 07:09:37;;;;;;;1.10;1.00;;;23.30;89.90;;;;;;5008021;28;20091;-92
2021/07/04 07:12:33;;;;;;;0.80;0.80;;;23.30;89.90;;;;;;5008920;28;20041;-89
2021/07/04 07:15:18;;;;;;;1.10;1.02;;;23.30;90.00;;;;;;5009692;28;20046;-82
2021/07/04 07:17:46;;;;;;;4.35;1.35;;;23.30;90.20;;;;;;4993142;28;20044;-85
2021/07/04 07:24:00;;;;;;;1.58;1.40;;;23.20;90.00;;;;;;5009109;28;20068;-83
2021/07/04 07:43:27;;;;;;;2.65;2.45;;;23.70;87.70;;;;;;5010085;28;20054;-89
2021/07/04 07:45:53;;;;;;;0.68;0.68;;;23.70;88.00;;;;;;4994339;28;20033;-84
2021/07/04 07:48:18;;;;;;;1.02;1.00;;;23.80;87.70;;;;;;5010909;28;20037;-82
2021/07/04 07:50:44;;;;;;;0.90;0.88;;;24.00;87.00;;;;;;5011192;28;20065;-82
2021/07/04 07:53:13;;;;;;;4.28;3.60;;;24.10;86.60;;;;;;5011092;28;20037;-84
2021/07/04 07:55:38;;;;;;;5.15;2.63;;;24.20;86.60;;;;;;5011195;28;20081;-81
2021/07/04 07:58:04;;;;;;;8.05;6.25;;;24.40;86.10;;;;;;4993644;28;20034;-81
2021/07/04 08:00:30;;;;;;;7.80;5.68;;;24.50;86.00;;;;;;5011216;28;20038;-80
2021/07/04 08:02:56;;;;;;;2.60;2.40;;;24.80;84.60;;;;;;5011148;28;20523;-84
2021/07/04 08:05:22;;;;;;;5.47;4.28;;;25.00;83.10;;;;;;5011099;28;20185;-83
2021/07/04 08:07:48;;;;;;;1.85;1.55;;;25.00;81.90;;;;;;4993578;28;20489;-84
2021/07/04 08:10:14;;;;;;;1.98;1.52;;;24.60;80.90;;;;;;4993314;28;20061;-84
2021/07/04 08:12:46;;;;;;;1.10;1.00;;;24.40;80.60;;;;;;5001121;28;20426;-81
2021/07/04 08:15:37;;;;;;;1.50;1.40;;;24.70;80.50;;;;;;5000381;28;20460;-84
2021/07/04 08:18:02;;;;;;;4.15;3.03;;;24.90;80.10;;;;;;4993806;28;20397;-83
2021/07/04 08:21:12;;;;;;;2.95;2.40;;;25.10;79.60;;;;;;4991430;28;20490;-80
2021/07/04 08:23:55;;;;;;;2.42;1.42;;;25.20;78.60;;;;;;4993705;28;20038;-85
2021/07/04 08:26:22;;;;;;;1.63;1.52;;;25.30;78.70;;;;;;4996769;28;20045;-82
2021/07/04 08:28:48;;;;;;;1.55;1.45;;;25.60;78.20;;;;;;5002843;28;20026;-80
2021/07/04 08:31:14;;;;;;;2.20;1.48;;;25.60;77.20;;;;;;5004040;28;20033;-82
2021/07/04 08:33:40;;;;;;;1.52;1.15;;;25.80;77.30;;;;;;5008166;28;20491;-83
2021/07/04 08:36:07;;;;;;;3.30;2.03;;;25.90;78.00;;;;;;5011596;28;20041;-87
2021/07/04 08:41:38;;;;;;;1.80;1.65;;;26.00;75.80;;;;;;5016892;23;20121;-81
2021/07/04 08:44:09;;;;;;;0.73;0.73;;;25.90;74.60;;;;;;5007376;28;20256;-82
2021/07/04 08:46:40;;;;;;;0.50;0.50;;;25.90;73.50;;;;;;5004857;28;20382;-84
2021/07/04 08:49:06;;;;;;;0.68;0.68;;;25.80;73.10;;;;;;5004594;28;20027;-83
2021/07/04 08:51:32;;;;;;;0.68;0.68;;;25.80;74.30;;;;;;4996212;28;20031;-82
2021/07/04 08:53:58;;;;;;;0.60;0.60;;;26.10;74.00;;;;;;4982544;28;20455;-79
2021/07/04 08:56:23;;;;;;;1.83;1.67;;;26.50;73.10;;;;;;4984280;28;20108;-83
2021/07/04 08:58:49;;;;;;;1.58;1.48;;;26.20;74.20;;;;;;4998580;28;20394;-81
2021/07/04 09:01:19;;;;;;;0.98;0.88;;;26.30;75.20;;;;;;4980676;28;20534;-82
2021/07/04 09:04:11;;;;;;;1.05;0.93;;;26.30;74.90;;;;;;4975303;28;20448;-80
2021/07/04 09:06:43;;;;;;;0.63;0.63;;;26.30;75.00;;;;;;4973819;28;20027;-84
2021/07/04 09:09:27;;;;;;;1.50;1.00;;;26.60;74.50;;;;;;4974908;28;20035;-81
2021/07/04 09:12:07;;;;;;;3.30;1.75;;;26.70;73.30;;;;;;4975083;28;20038;-82
2021/07/04 09:14:32;;;;;;;2.97;2.67;;;26.70;73.50;;;;;;4979771;28;20035;-83
2021/07/04 09:16:59;;;;;;;0.93;0.85;;;26.70;73.70;;;;;;4987209;28;20045;-91
2021/07/04 09:19:25;;;;;;;1.60;1.50;;;26.80;71.90;;;;;;4994043;28;20042;-81
2021/07/04 09:22:11;;;;;;;0.40;0.40;;;26.80;73.00;;;;;;4995434;28;20692;-89
2021/07/04 09:24:42;;;;;;;1.15;0.88;;;26.90;72.70;;;;;;4995628;28;20047;-89
2021/07/04 09:27:14;;;;;;;0.88;0.85;;;27.10;73.20;;;;;;5007553;28;20474;-89
2021/07/04 09:29:46;;;;;;;0.75;0.75;;;27.00;74.00;;;;;;4985252;28;20085;-79
2021/07/04 09:32:32;;;;;;;0.68;0.68;;;27.00;73.40;;;;;;4986846;28;20065;-82
2021/07/04 09:35:03;;;;;;;0.52;0.52;;;26.80;73.60;;;;;;4983556;28;20034;-78
2021/07/04 09:37:45;;;;;;;2.15;1.05;;;26.80;74.00;;;;;;4981680;28;20057;-83
2021/07/04 09:40:22;;;;;;;1.10;1.00;;;27.10;72.70;;;;;;4981872;28;20058;-80
2021/07/04 09:42:58;;;;;;;1.27;1.05;;;27.10;71.90;;;;;;4982163;28;20049;-81
2021/07/04 09:45:26;;;;;;;1.02;0.93;;;27.30;72.00;;;;;;4981071;28;20030;-80
2021/07/04 09:47:54;;;;;;;0.70;0.70;;;27.30;74.80;;;;;;4983185;28;20034;-77
2021/07/04 09:50:20;;;;;;;0.88;0.82;;;27.30;72.20;;;;;;4985160;28;20050;-86
2021/07/04 09:53:01;;;;;;;0.57;0.57;;;27.30;71.30;;;;;;4988208;28;20027;-79
2021/07/04 09:55:27;;;;;;;;;;;27.30;69.30;;;;;;4994652;28;20046;-83
2021/07/04 09:58:05;;;;;;;1.05;0.95;;;27.40;73.10;;;;;;4993673;28;19910;-82
2021/07/04 10:00:37;;;;;;;2.47;1.02;;;27.70;69.10;;;;;;4995217;28;20129;-80
2021/07/04 10:03:12;;;;;;;0.63;0.63;;;27.70;69.40;;;;;;4993779;28;20023;-82
2021/07/04 10:05:44;;;;;;;0.40;0.40;;;27.80;69.10;;;;;;4993980;28;20034;-79
2021/07/04 10:08:17;;;;;;;1.48;1.00;;;27.70;69.20;;;;;;4993727;28;20030;-79
2021/07/04 10:10:43;;;;;;;1.30;0.80;;;27.70;71.10;;;;;;5008789;28;20641;-83
2021/07/04 10:13:09;;;;;;;1.60;1.25;;;27.90;69.80;;;;;;4994170;28;20042;-84
2021/07/04 10:15:35;;;;;;;1.75;1.58;;;27.90;67.20;;;;;;4993879;28;20045;-79
2021/07/04 10:18:02;;;;;;;4.38;2.65;;;28.30;70.70;;;;;;4993606;28;20046;-82
2021/07/04 10:20:29;;;;;;;2.78;1.20;;;28.60;68.50;;;;;;4977993;28;20042;-77
2021/07/04 10:22:55;;;;;;;2.03;1.55;;;28.40;64.80;;;;;;4986783;28;20057;-79
2021/07/04 10:25:20;;;;;;;0.68;0.65;;;28.40;67.50;;;;;;4993555;28;20069;-75
2021/07/04 10:27:49;;;;;;;0.52;0.52;;;28.70;66.50;;;;;;4993365;28;20062;-78
2021/07/04 10:30:15;;;;;;;1.38;0.95;;;28.80;64.80;;;;;;4992986;28;20096;-74
2021/07/04 10:33:04;;;;;;;0.95;0.75;;;28.90;64.90;;;;;;4981723;28;20659;-73
2021/07/04 10:35:30;;;;;;;0.50;0.50;;;29.00;61.20;;;;;;4981706;28;20026;-75
2021/07/04 10:38:14;;;;;;;1.20;1.10;;;29.00;63.80;;;;;;4982376;28;20026;-74
2021/07/04 10:40:40;;;;;;;0.95;0.85;;;29.00;63.20;;;;;;4981831;28;20402;-81
2021/07/04 10:43:07;;;;;;;0.50;0.50;;;29.10;62.00;;;;;;4983511;28;20031;-81
2021/07/04 10:45:35;;;;;;;1.40;1.08;;;28.80;61.60;;;;;;4982453;28;20029;-74
2021/07/04 10:48:18;;;;;;;0.50;0.50;;;28.80;61.70;;;;;;4996353;28;20046;-76
2021/07/04 10:51:04;;;;;;;0.40;0.40;;;28.70;61.60;;;;;;4981093;28;20182;-74
2021/07/04 10:53:49;;;;;;;1.65;1.00;;;28.20;61.30;;;;;;4981808;28;20088;-75
2021/07/04 10:56:33;;;;;;;0.77;0.77;;;28.20;62.40;;;;;;4982509;28;20042;-75
2021/07/04 10:59:19;;;;;;;1.15;0.85;;;28.50;62.10;;;;;;4982767;28;20038;-75
2021/07/04 11:01:49;;;;;;;0.30;0.30;;;27.90;61.90;;;;;;4982161;28;20117;-74
2021/07/04 11:04:33;;;;;;;0.50;0.50;;;28.20;60.70;;;;;;4981945;28;20027;-75
2021/07/04 11:07:03;;;;;;;1.20;0.93;;;28.40;61.50;;;;;;4982547;28;20748;-75
2021/07/04 11:09:51;;;;;;;0.40;0.40;;;28.60;61.10;;;;;;4981557;28;20040;-77
2021/07/04 11:12:30;;;;;;;0.90;0.82;;;28.80;63.40;;;;;;4992087;28;20097;-74
2021/07/04 11:15:11;;;;;;;0.55;0.52;;;28.40;60.10;;;;;;4992003;28;20034;-80
2021/07/04 11:17:55;;;;;;;0.52;0.52;;;28.30;60.80;;;;;;4985953;28;20035;-78
2021/07/04 11:20:29;;;;;;;1.48;1.10;;;28.50;60.60;;;;;;4990493;28;20046;-74
2021/07/04 11:23:01;;;;;;;0.75;0.73;;;28.60;60.80;;;;;;4992174;28;20027;-76
2021/07/04 11:25:39;;;;;;;1.27;1.17;;;28.70;61.30;;;;;;4991900;28;20283;-76
2021/07/04 11:28:17;;;;;;;2.38;2.10;;;28.60;60.70;;;;;;4988243;28;20094;-76
2021/07/04 11:30:43;;;;;;;2.17;1.58;;;28.80;61.90;;;;;;4980980;28;20030;-77
2021/07/04 11:33:28;;;;;;;2.10;1.55;;;29.00;61.00;;;;;;5027149;28;20490;-71
2021/07/04 11:35:57;;;;;;;3.25;2.88;;;29.20;61.40;;;;;;5011245;28;20448;-75
2021/07/04 11:38:26;;;;;;;1.47;1.00;;;29.30;62.10;;;;;;4998088;28;20082;-76
2021/07/04 11:40:52;;;;;;;0.75;0.75;;;29.50;62.90;;;;;;4982317;28;20046;-77
2021/07/04 11:43:21;;;;;;;0.28;0.28;;;30.10;60.30;;;;;;4982405;28;20109;-77
2021/07/04 11:45:58;;;;;;;0.32;0.32;;;30.40;59.40;;;;;;4986066;28;20038;-77
2021/07/04 11:48:45;;;;;;;1.80;1.50;;;30.40;58.10;;;;;;4989698;28;20368;-74
2021/07/04 11:51:32;;;;;;;0.40;0.40;;;29.30;57.90;;;;;;4981986;28;20037;-74
2021/07/04 11:54:01;;;;;;;0.80;0.80;;;29.10;58.30;;;;;;4986684;28;20050;-80
2021/07/04 11:56:28;;;;;;;0.40;0.40;;;29.40;59.50;;;;;;4991788;28;20022;-87
2021/07/04 11:59:04;;;;;;;2.28;1.60;;;29.60;59.40;;;;;;4990877;28;20129;-80
2021/07/04 12:01:30;;;;;;;3.00;1.88;;;29.80;58.80;;;;;;4991796;28;20490;-83
2021/07/04 12:03:56;;;;;;;0.60;0.60;;;29.80;57.30;;;;;;5006975;28;20049;-79
2021/07/04 12:06:25;;;;;;;0.60;0.60;;;29.00;57.40;;;;;;4991166;28;20130;-81
2021/07/04 12:08:53;;;;;;;1.00;0.55;;;29.40;59.30;;;;;;4991433;28;20089;-80
2021/07/04 12:11:19;;;;;;;1.05;0.70;;;29.10;57.60;;;;;;4991571;28;20045;-77
2021/07/04 12:13:46;;;;;;;0.30;0.30;;;29.40;58.10;;;;;;4993933;28;20037;-77
2021/07/04 12:16:12;;;;;;;3.40;1.50;;;29.40;58.30;;;;;;4996395;28;20045;-79
2021/07/04 12:18:40;;;;;;;0.65;0.63;;;29.70;58.10;;;;;;4994841;28;20081;-76
2021/07/04 12:21:06;;;;;;;0.50;0.47;;;29.90;58.90;;;;;;4994975;28;20078;-80
2021/07/04 12:23:32;;;;;;;0.50;0.50;;;29.50;57.50;;;;;;4995453;28;20058;-77
2021/07/04 12:26:07;;;;;;;0.45;0.45;;;28.70;58.30;;;;;;4995634;28;20046;-75
2021/07/04 12:28:33;;;;;;;1.08;0.57;;;28.60;58.50;;;;;;4995592;28;20043;-80
2021/07/04 12:30:59;;;;;;;0.60;0.60;;;28.20;58.60;;;;;;4996092;28;20462;-76
2021/07/04 12:33:27;;;;;;;0.43;0.43;;;28.30;59.70;;;;;;4995011;28;20509;-77
2021/07/04 12:36:01;;;;;;;0.55;0.55;;;28.30;59.20;;;;;;4994834;28;20030;-76
2021/07/04 12:38:34;;;;;;;1.75;1.23;;;28.30;59.20;;;;;;4995102;28;20037;-77
2021/07/04 12:41:05;;;;;;;0.40;0.40;;;28.60;59.30;;;;;;5008840;28;20062;-74
2021/07/04 12:43:37;;;;;;;0.40;0.40;;;28.70;58.70;;;;;;5014408;28;20034;-76
2021/07/04 12:46:13;;;;;;;1.58;1.30;;;29.10;58.90;;;;;;4997203;28;20038;-76
2021/07/04 12:48:47;;;;;;;2.83;2.22;;;29.10;58.50;;;;;;5014528;28;20100;-76
2021/07/04 12:51:15;;;;;;;0.50;0.50;;;28.40;58.40;;;;;;5014465;28;20037;-77
2021/07/04 12:53:46;;;;;;;0.40;0.40;;;28.60;59.70;;;;;;4996131;28;20030;-82
2021/07/04 12:56:32;;;;;;;0.60;0.60;;;29.00;58.50;;;;;;4992462;28;20053;-81
2021/07/04 12:59:00;;;;;;;1.33;0.82;;;29.00;58.30;;;;;;4975050;28;20039;-81
2021/07/04 13:01:28;;;;;;;0.40;0.40;;;28.50;58.40;;;;;;4975820;28;20049;-80
2021/07/04 13:04:15;;;;;;;1.27;1.10;;;28.50;59.00;;;;;;4975188;28;20042;-76
2021/07/04 13:07:06;;;;;;;1.50;1.20;;;28.80;60.60;;;;;;4975256;28;20058;-80
2021/07/04 13:09:35;;;;;;;0.70;0.70;;;28.90;60.10;;;;;;4974824;28;20115;-77
2021/07/04 13:12:14;;;;;;;0.68;0.68;;;29.00;59.10;;;;;;4975487;28;20035;-84
2021/07/04 13:14:46;;;;;;;0.30;0.30;;;28.90;60.40;;;;;;4974658;28;20442;-78
2021/07/04 13:17:24;;;;;;;0.57;0.57;;;29.00;58.50;;;;;;4975051;28;20428;-77
2021/07/04 13:19:55;;;;;;;0.57;0.57;;;29.00;60.00;;;;;;4974758;28;20181;-80
2021/07/04 13:22:24;;;;;;;0.30;0.30;;;29.80;58.90;;;;;;4975402;28;20042;-81
2021/07/04 13:25:02;;;;;;;8.18;1.13;;;30.40;58.40;;;;;;4973489;28;20059;-78
2021/07/04 13:27:33;;;;;;;0.95;0.57;;;30.90;57.20;;;;;;4975249;28;20376;-81
2021/07/04 13:30:17;;;;;;;0.68;0.63;;;30.60;57.60;;;;;;4973247;28;20039;-82
2021/07/04 13:33:06;;;;;;;0.63;0.63;;;30.90;57.30;;;;;;5009328;28;20022;-78
2021/07/04 13:35:38;;;;;;;1.25;1.13;;;30.10;56.70;;;;;;5013451;28;20390;-81
2021/07/04 14:48:14;;;;;;;0.47;0.47;;;30.00;54.90;;;;;;5067696;28;20375;-84
2021/07/04 14:50:44;;;;;;;0.50;0.50;;;29.90;54.90;;;;;;5068575;28;20021;-81
2021/07/04 14:53:11;;;;;;;0.85;0.82;;;30.10;54.80;;;;;;5068592;28;20020;-85
2021/07/04 14:55:40;;;;;;;0.73;0.73;;;30.80;53.90;;;;;;5068371;28;20353;-82
2021/07/04 14:58:07;;;;;;;0.52;0.52;;;31.30;53.20;;;;;;5068169;28;20045;-79
2021/07/04 15:00:34;;;;;;;0.30;0.30;;;31.40;52.50;;;;;;5068514;28;20025;-80
2021/07/04 15:03:00;;;;;;;0.82;0.55;;;31.10;52.60;;;;;;5068241;28;20021;-81
2021/07/04 15:05:26;;;;;;;0.47;0.45;;;31.20;52.10;;;;;;5068253;28;20512;-79
2021/07/04 15:07:52;;;;;;;0.30;0.30;;;31.50;52.10;;;;;;5066973;28;20115;-82
2021/07/04 15:10:26;;;;;;;0.65;0.65;;;31.80;51.70;;;;;;5067636;28;20017;-80
2021/07/04 15:12:52;;;;;;;0.73;0.60;;;31.50;51.80;;;;;;5067923;28;20029;-80
2021/07/04 15:15:18;;;;;;;0.60;0.50;;;31.40;51.20;;;;;;5067967;28;20021;-82
2021/07/04 15:17:44;;;;;;;0.52;0.50;;;31.20;51.40;;;;;;5067697;28;20045;-80
2021/07/04 15:20:10;;;;;;;0.22;0.22;;;31.00;52.00;;;;;;5066456;28;20094;-76
2021/07/04 15:22:36;;;;;;;0.30;0.30;;;30.80;52.10;;;;;;5068087;28;20023;-76
2021/07/04 15:25:05;;;;;;;0.28;0.28;;;31.00;51.90;;;;;;5067771;28;20412;-79
2021/07/04 15:27:31;;;;;;;0.70;0.68;;;31.30;51.70;;;;;;5067570;28;20079;-80
2021/07/04 15:29:57;;;;;;;0.40;0.40;;;31.50;51.20;;;;;;5067693;28;20013;-80
2021/07/04 15:32:23;;;;;;;0.47;0.47;;;31.90;50.90;;;;;;5067521;28;20035;-78
2021/07/04 15:34:48;;;;;;;1.45;0.98;;;31.80;50.70;;;;;;5067297;28;20163;-82
2021/07/04 15:37:14;;;;;;;1.30;0.95;;;31.20;51.00;;;;;;5067540;28;20431;-81
2021/07/04 15:39:40;;;;;;;0.98;0.88;;;31.50;50.90;;;;;;5067906;28;20051;-80
2021/07/04 15:42:06;;;;;;;2.35;0.50;;;31.30;50.80;;;;;;5067183;28;20416;-77
2021/07/04 15:44:32;;;;;;;0.70;0.60;;;31.90;50.70;;;;;;5066984;28;20019;-75
2021/07/04 15:46:57;;;;;;;2.20;1.70;;;32.50;50.10;;;;;;5047067;28;20481;-76
2021/07/04 15:49:23;;;;;;;0.80;0.60;;;32.70;49.70;;;;;;5058129;28;20472;-76
2021/07/04 15:51:49;;;;;;;0.47;0.40;;;32.40;49.80;;;;;;5066728;28;20016;-75